Time;durP1;ratioP1;P1;durP2;ratioP2;P2;SDS_P1;SDS_P2;PMS_P1;PMS_P2;Temp;Humidity;BMP_temperature;BMP_pressure;BME280_temperature;BME280_humidity;BME280_pressure;Samples;Min_cycle;Max_cycle;Signal;HPM_P1;HPM_P2
2022/07/25 00:01:02;;;;;;;9.63;8.07;;;26.20;54.00;;;28.62;41.04;101104.16;5093605;28;20196;-61
2022/07/25 00:03:33;;;;;;;8.80;7.17;;;26.20;54.10;;;28.59;41.08;101102.03;5094220;28;20208;-59
2022/07/25 00:06:00;;;;;;;11.20;6.77;;;26.10;54.00;;;28.58;40.71;101104.97;5094187;28;20208;-57
2022/07/25 00:08:28;;;;;;;7.40;6.80;;;26.10;53.90;;;28.57;40.96;101101.50;5094773;28;20195;-61
2022/07/25 00:10:55;;;;;;;7.03;6.40;;;26.10;54.00;;;28.56;40.81;101104.47;5093149;28;20184;-60
2022/07/25 00:13:22;;;;;;;7.00;6.40;;;26.10;53.90;;;28.57;40.73;101101.50;5093398;28;20212;-60
2022/07/25 00:15:51;;;;;;;7.37;6.10;;;26.00;53.80;;;28.57;40.64;101097.97;5094319;28;20188;-60
2022/07/25 00:18:19;;;;;;;7.43;6.73;;;26.00;53.90;;;28.54;40.76;101095.81;5094273;28;20192;-60
2022/07/25 00:20:46;;;;;;;9.17;7.60;;;26.00;54.60;;;28.49;41.18;101087.72;5094186;28;20699;-59
2022/07/25 00:23:13;;;;;;;7.03;6.33;;;26.00;54.00;;;28.46;40.96;101088.28;5094517;28;20287;-59
2022/07/25 00:25:41;;;;;;;7.43;6.73;;;26.00;54.00;;;28.43;40.79;101084.25;5093952;28;20188;-59
2022/07/25 00:28:08;;;;;;;7.83;6.53;;;26.00;54.00;;;28.43;40.85;101088.88;5093618;28;20207;-59
2022/07/25 00:30:36;;;;;;;10.27;8.40;;;25.90;54.00;;;28.40;40.83;101084.03;5095429;28;20212;-60
2022/07/25 00:33:04;;;;;;;6.90;6.30;;;25.90;54.10;;;28.36;41.03;101077.56;5095053;28;20216;-60
2022/07/25 00:35:32;;;;;;;7.70;7.00;;;25.90;54.00;;;28.35;41.04;101078.63;5093309;28;20551;-59
2022/07/25 00:37:59;;;;;;;7.77;7.07;;;25.90;54.20;;;28.30;41.41;101073.25;5093226;28;20192;-60
2022/07/25 00:40:27;;;;;;;7.40;6.70;;;25.80;54.20;;;28.29;40.87;101075.16;5092836;28;20377;-59
2022/07/25 00:42:54;;;;;;;7.80;7.00;;;25.80;54.90;;;28.24;41.29;101066.28;5093315;28;20216;-58
2022/07/25 00:45:22;;;;;;;7.00;6.13;;;25.80;54.20;;;28.23;41.26;101072.78;5094415;28;20184;-59
2022/07/25 00:47:49;;;;;;;11.47;6.90;;;25.80;54.30;;;28.16;41.12;101076.63;5093278;28;20192;-59
2022/07/25 00:50:18;;;;;;;8.70;6.33;;;25.70;54.30;;;28.15;41.23;101071.47;5093284;28;20589;-59
2022/07/25 00:52:47;;;;;;;7.23;6.63;;;25.70;54.50;;;28.09;41.40;101073.44;5092615;28;20578;-61
2022/07/25 00:55:15;;;;;;;7.87;5.93;;;25.70;54.50;;;28.05;41.20;101066.16;5092946;28;20191;-57
2022/07/25 00:57:42;;;;;;;7.40;6.60;;;25.60;54.40;;;27.98;41.57;101074.56;5093033;28;20185;-60
2022/07/25 01:00:13;;;;;;;7.37;6.47;;;25.60;54.60;;;27.93;41.51;101063.75;5092999;28;20189;-59
2022/07/25 01:02:42;;;;;;;7.27;6.70;;;25.60;54.60;;;27.90;41.62;101064.34;5093687;28;20700;-61
2022/07/25 01:05:10;;;;;;;7.70;6.00;;;25.50;54.80;;;27.88;41.76;101060.31;5092817;28;20594;-57
2022/07/25 01:07:39;;;;;;;7.03;6.33;;;25.50;54.80;;;27.89;41.51;101061.91;5093188;28;20277;-59
2022/07/25 01:10:08;;;;;;;6.47;5.87;;;25.40;54.80;;;27.91;41.84;101055.13;5093066;28;20195;-59
2022/07/25 01:12:51;;;;;;;6.90;6.33;;;25.40;54.90;;;27.85;41.59;101050.84;5092576;28;20220;-59
2022/07/25 01:15:21;;;;;;;9.07;6.90;;;25.40;55.10;;;27.89;41.49;101051.88;5092733;28;20185;-60
2022/07/25 01:17:48;;;;;;;10.43;6.83;;;25.40;55.10;;;27.89;41.50;101057.31;5093907;28;20184;-59
2022/07/25 01:20:19;;;;;;;7.73;6.97;;;25.40;55.20;;;27.86;41.77;101051.66;5092845;28;20195;-60
2022/07/25 01:22:46;;;;;;;6.53;5.93;;;25.40;55.30;;;27.81;41.80;101054.41;5092525;28;20270;-59
2022/07/25 01:25:15;;;;;;;7.33;6.73;;;25.40;55.20;;;27.78;41.71;101042.22;5092586;28;20188;-59
2022/07/25 01:27:43;;;;;;;7.20;6.60;;;25.30;55.20;;;27.74;41.84;101038.44;5092662;28;20196;-60
2022/07/25 01:30:14;;;;;;;7.77;7.07;;;25.30;55.20;;;27.70;41.72;101042.81;5092622;28;20199;-61
2022/07/25 01:32:42;;;;;;;7.27;6.57;;;25.20;55.20;;;27.68;42.11;101039.59;5092263;28;20216;-61
2022/07/25 01:35:12;;;;;;;7.60;6.50;;;25.20;55.20;;;27.65;41.99;101045.53;5096826;28;20299;-57
2022/07/25 01:37:41;;;;;;;8.83;7.30;;;25.20;55.40;;;27.63;42.00;101033.38;5096319;28;20671;-58
2022/07/25 01:40:13;;;;;;;11.80;6.33;;;25.10;56.00;;;27.61;42.00;101017.44;5096086;28;20684;-59
2022/07/25 01:42:40;;;;;;;6.97;6.37;;;25.10;55.40;;;27.62;42.33;101023.66;5094484;28;20224;-61
2022/07/25 01:45:10;;;;;;;6.93;6.33;;;25.10;55.60;;;27.62;41.97;101012.84;5096078;28;20197;-60
2022/07/25 01:47:38;;;;;;;6.47;5.87;;;25.10;55.60;;;27.61;41.78;101017.44;5095830;28;20204;-61
2022/07/25 01:50:07;;;;;;;7.83;7.13;;;25.10;55.70;;;27.61;42.19;101012.03;5096098;28;20199;-59
2022/07/25 01:52:35;;;;;;;8.00;7.27;;;25.10;55.80;;;27.58;42.02;101012.59;5096662;28;20208;-59
2022/07/25 01:55:06;;;;;;;9.00;7.17;;;25.10;56.10;;;27.57;42.03;101010.16;5096138;28;20193;-61
2022/07/25 01:57:33;;;;;;;6.73;6.17;;;25.10;56.00;;;27.52;42.69;101002.91;5094903;28;20211;-59
2022/07/25 02:00:05;;;;;;;7.67;7.07;;;25.00;56.00;;;27.49;42.25;101000.75;5095858;28;20661;-60
2022/07/25 02:02:32;;;;;;;6.80;6.30;;;25.00;56.10;;;27.44;42.51;100995.38;5095173;28;20219;-59
2022/07/25 02:04:59;;;;;;;8.43;7.57;;;25.00;56.30;;;27.39;42.83;100993.50;5095597;28;20187;-59
2022/07/25 02:07:27;;;;;;;11.00;7.80;;;24.90;56.30;;;27.35;42.94;100991.59;5096963;28;20185;-59
2022/07/25 02:09:54;;;;;;;7.73;7.13;;;24.90;56.50;;;27.31;43.33;100985.16;5095983;28;20569;-60
2022/07/25 02:12:24;;;;;;;8.07;6.53;;;24.90;56.60;;;27.23;43.11;100986.53;5095319;28;20240;-59
2022/07/25 02:14:52;;;;;;;8.20;7.43;;;24.90;56.50;;;27.21;42.86;100985.19;5095422;28;20222;-59
2022/07/25 02:17:19;;;;;;;8.40;7.60;;;24.80;56.50;;;27.17;43.51;100978.75;5095412;28;20238;-60
2022/07/25 02:19:47;;;;;;;7.63;7.03;;;24.80;56.60;;;27.15;42.81;100980.88;5095319;28;20203;-60
2022/07/25 02:22:14;;;;;;;13.60;7.43;;;24.70;56.40;;;27.13;43.19;100978.47;5094958;28;20672;-61
2022/07/25 02:24:42;;;;;;;7.00;6.40;;;24.70;56.50;;;27.13;43.37;100972.25;5096250;28;20303;-59
2022/07/25 02:27:09;;;;;;;7.47;6.87;;;24.70;56.50;;;27.12;42.74;100976.06;5095225;28;20497;-60
2022/07/25 02:29:38;;;;;;;6.77;6.23;;;24.70;56.50;;;27.12;43.24;100971.47;5095080;28;20197;-59
2022/07/25 02:32:06;;;;;;;8.20;7.17;;;24.60;56.50;;;27.09;42.91;100960.38;5094624;28;20700;-59
2022/07/25 02:34:33;;;;;;;7.50;6.80;;;24.60;56.50;;;27.06;42.84;100960.94;5095203;28;20600;-61
2022/07/25 02:37:00;;;;;;;7.73;7.10;;;24.60;56.60;;;27.03;43.18;100959.59;5095227;28;20193;-58
2022/07/25 02:39:28;;;;;;;6.80;6.27;;;24.60;56.60;;;27.01;42.70;100952.84;5095173;28;20195;-62
2022/07/25 02:41:55;;;;;;;8.63;7.00;;;24.60;56.60;;;26.98;42.87;100948.03;5096039;28;20234;-61
2022/07/25 02:44:23;;;;;;;7.93;7.23;;;24.50;56.70;;;26.94;43.23;100936.13;5093918;28;20184;-61
2022/07/25 02:46:51;;;;;;;7.60;6.90;;;24.50;56.80;;;26.93;42.86;100943.44;5094200;28;20198;-58
2022/07/25 02:49:19;;;;;;;7.87;7.07;;;24.50;56.80;;;26.92;43.52;100932.91;5095040;28;20195;-57
2022/07/25 02:51:46;;;;;;;7.03;6.43;;;24.40;56.70;;;26.93;43.17;100934.53;5094546;28;20238;-59
2022/07/25 02:54:14;;;;;;;6.97;6.37;;;24.40;56.80;;;26.92;43.34;100932.91;5095081;28;20215;-59
2022/07/25 02:56:42;;;;;;;7.80;7.03;;;24.40;56.90;;;26.85;43.63;100923.22;5096446;28;20665;-60
2022/07/25 02:59:09;;;;;;;7.80;7.03;;;24.40;56.80;;;26.82;43.54;100931.06;5115438;27;20184;-60
2022/07/25 03:01:37;;;;;;;11.17;7.50;;;24.40;56.70;;;26.78;43.17;100925.41;5114958;28;20211;-58
2022/07/25 03:04:06;;;;;;;7.40;6.70;;;24.30;56.70;;;26.73;43.44;100920.00;5114930;28;20176;-59
2022/07/25 03:06:34;;;;;;;7.90;6.97;;;24.30;56.70;;;26.68;43.27;100917.31;5115404;28;20594;-59
2022/07/25 03:09:01;;;;;;;9.90;8.03;;;24.30;56.80;;;26.67;43.31;100912.97;5115231;28;20188;-60
2022/07/25 03:11:28;;;;;;;7.67;6.97;;;24.20;56.70;;;26.65;43.36;100911.63;5116250;28;20233;-59
2022/07/25 03:13:56;;;;;;;8.27;7.33;;;24.30;56.90;;;26.60;43.30;100915.16;5113404;28;20668;-60
2022/07/25 03:16:24;;;;;;;8.13;7.33;;;24.20;57.00;;;26.55;43.52;100912.50;5114999;28;20191;-60
2022/07/25 03:18:51;;;;;;;8.13;6.93;;;24.20;57.00;;;26.55;43.85;100912.50;5114772;28;20188;-59
2022/07/25 03:21:20;;;;;;;8.43;6.93;;;24.10;57.00;;;26.54;43.68;100910.88;5114679;27;20204;-59
2022/07/25 03:23:47;;;;;;;7.20;6.50;;;24.10;57.10;;;26.54;43.64;100908.19;5114766;28;20191;-60
2022/07/25 03:26:19;;;;;;;9.73;6.70;;;24.10;57.20;;;26.51;43.12;100906.03;5114783;28;20192;-59
2022/07/25 03:28:46;;;;;;;8.83;7.93;;;24.10;57.00;;;26.50;43.74;100907.13;5114529;28;20531;-60
2022/07/25 03:31:14;;;;;;;8.40;6.63;;;24.10;57.10;;;26.49;43.41;100892.00;5112120;28;20215;-61
2022/07/25 03:33:41;;;;;;;17.90;13.30;;;24.10;57.20;;;26.45;44.28;100895.53;5114046;28;20211;-60
2022/07/25 03:36:10;;;;;;;9.40;7.63;;;24.00;57.50;;;26.44;43.45;100888.50;5114583;28;20271;-59
2022/07/25 03:38:39;;;;;;;6.90;6.30;;;24.00;57.30;;;26.44;44.11;100883.09;5114557;28;20570;-60
2022/07/25 03:41:06;;;;;;;7.23;6.57;;;24.00;57.40;;;26.43;43.49;100876.09;5113794;28;20192;-60
2022/07/25 03:43:33;;;;;;;7.97;7.13;;;24.00;57.40;;;26.43;44.12;100885.00;5112640;28;20207;-61
2022/07/25 03:46:01;;;;;;;8.33;6.77;;;24.00;57.40;;;26.41;43.39;100870.94;5093842;28;20207;-60
2022/07/25 03:48:28;;;;;;;6.83;6.27;;;24.00;57.30;;;26.41;43.41;100872.88;5093838;28;20251;-59
2022/07/25 03:50:56;;;;;;;8.10;7.40;;;23.90;57.30;;;26.40;43.60;100872.06;5093278;28;20656;-60
2022/07/25 03:53:23;;;;;;;7.73;7.03;;;23.90;57.30;;;26.37;43.49;100867.19;5093615;28;20193;-59
2022/07/25 03:55:52;;;;;;;8.03;7.17;;;23.90;57.30;;;26.34;43.31;100858.84;5093553;28;20188;-59
2022/07/25 03:58:19;;;;;;;7.27;6.57;;;23.90;57.20;;;26.28;43.96;100855.34;5101243;28;20195;-60
2022/07/25 04:00:47;;;;;;;7.33;6.53;;;23.90;57.30;;;26.25;44.09;100853.19;5113622;28;20187;-60
2022/07/25 04:03:15;;;;;;;8.33;6.60;;;23.80;57.20;;;26.22;43.48;100847.56;5113922;28;20269;-59
2022/07/25 04:05:42;;;;;;;6.63;5.93;;;23.80;57.20;;;26.20;43.72;100853.22;5113961;28;20184;-60
2022/07/25 04:08:14;;;;;;;7.63;6.53;;;23.80;57.40;;;26.20;44.05;100839.72;5113147;28;20202;-60
2022/07/25 04:10:41;;;;;;;7.87;7.10;;;23.80;57.50;;;26.20;44.25;100832.44;5113032;28;20183;-59
2022/07/25 04:13:10;;;;;;;7.40;6.73;;;23.70;57.50;;;26.17;44.48;100829.47;5113737;28;20211;-60
2022/07/25 04:15:37;;;;;;;6.80;6.20;;;23.70;57.70;;;26.13;44.48;100833.78;5095270;28;20238;-61
2022/07/25 04:18:05;;;;;;;6.97;6.33;;;23.70;57.60;;;26.14;43.83;100824.63;5093277;28;20272;-59
2022/07/25 04:20:36;;;;;;;7.20;6.40;;;23.70;57.70;;;26.17;43.70;100821.38;5092924;28;20196;-60
2022/07/25 04:23:03;;;;;;;9.23;6.50;;;23.70;57.80;;;26.24;44.37;100815.69;5093158;28;20212;-60
2022/07/25 04:25:31;;;;;;;7.47;6.77;;;23.70;57.80;;;26.25;43.66;100810.00;5091913;28;20195;-60
2022/07/25 04:27:58;;;;;;;8.20;6.80;;;23.70;57.80;;;26.21;44.05;100806.25;5093213;28;20204;-60
2022/07/25 04:30:27;;;;;;;7.30;6.67;;;23.80;57.60;;;26.22;43.60;100799.75;5100644;28;20194;-60
2022/07/25 04:32:54;;;;;;;7.30;6.60;;;23.80;57.60;;;26.22;44.17;100799.75;5113095;28;20333;-60
2022/07/25 04:35:22;;;;;;;8.60;6.50;;;23.80;57.50;;;26.27;44.03;100804.34;5113201;28;20215;-59
2022/07/25 04:37:49;;;;;;;7.57;6.10;;;23.80;57.50;;;26.31;43.52;100795.41;5113322;28;20191;-60
2022/07/25 04:40:17;;;;;;;7.10;6.50;;;23.80;57.40;;;26.33;43.37;100789.72;5113557;28;20540;-59
2022/07/25 04:42:44;;;;;;;6.43;5.80;;;23.80;57.30;;;26.33;43.76;100790.53;5113065;28;20212;-58
2022/07/25 04:45:13;;;;;;;7.77;6.57;;;23.80;57.20;;;26.29;43.93;100789.50;5113095;28;20276;-61
2022/07/25 04:47:46;;;;;;;7.33;6.57;;;23.80;57.10;;;26.32;43.36;100797.00;5112462;28;20198;-60
2022/07/25 04:50:13;;;;;;;8.37;6.70;;;23.80;57.80;;;26.31;43.71;100795.41;5112908;28;20199;-60
2022/07/25 04:52:41;;;;;;;6.93;5.97;;;23.90;57.10;;;26.33;43.44;100795.94;5113112;28;20211;-60
2022/07/25 04:55:09;;;;;;;7.33;5.80;;;23.90;57.10;;;26.36;43.18;100790.00;5113511;28;20218;-61
2022/07/25 04:57:37;;;;;;;6.87;6.27;;;23.90;57.20;;;26.33;43.70;100790.53;5113403;28;20180;-60
2022/07/25 05:00:08;;;;;;;5.80;5.30;;;23.90;57.00;;;26.38;43.63;100779.72;5113136;28;20191;-61
2022/07/25 05:02:35;;;;;;;6.77;5.57;;;23.90;57.10;;;26.42;43.20;100783.47;5125564;28;20739;-58
2022/07/25 05:05:07;;;;;;;7.33;6.10;;;23.90;57.10;;;26.47;43.25;100774.53;5072341;28;20197;-61
2022/07/25 05:07:47;;;;;;;8.80;5.83;;;23.90;57.00;;;26.51;42.72;100779.09;5072571;28;20189;-60
2022/07/25 05:10:15;;;;;;;6.80;5.97;;;23.90;56.90;;;26.53;42.44;100774.22;5075738;28;20226;-61
2022/07/25 05:12:42;;;;;;;6.97;6.27;;;23.90;56.50;;;26.58;43.05;100776.91;5076146;28;20209;-60
2022/07/25 05:15:11;;;;;;;9.13;6.80;;;24.00;56.60;;;26.61;42.93;100780.94;5075645;28;20212;-60
2022/07/25 05:17:38;;;;;;;6.63;5.93;;;24.00;56.40;;;26.63;42.51;100768.75;5091794;28;20296;-61
2022/07/25 05:20:10;;;;;;;7.03;5.70;;;24.10;56.20;;;26.63;42.15;100762.53;5092043;28;20642;-60
2022/07/25 05:22:38;;;;;;;6.37;5.60;;;24.10;56.10;;;26.71;42.32;100764.66;5096168;28;20208;-61
2022/07/25 05:25:08;;;;;;;7.10;5.67;;;24.10;56.10;;;26.74;42.27;100762.19;5096325;28;20267;-60
2022/07/25 05:27:37;;;;;;;7.20;6.13;;;24.20;55.90;;;26.78;41.89;100765.19;5095935;28;20192;-59
2022/07/25 05:30:08;;;;;;;6.63;6.03;;;24.20;55.80;;;26.76;41.75;100757.38;5095946;28;20196;-61
2022/07/25 05:32:36;;;;;;;7.17;6.57;;;24.30;55.80;;;26.78;42.20;100760.59;5095403;28;20205;-61
2022/07/25 05:35:06;;;;;;;6.90;6.30;;;24.30;55.70;;;26.80;41.93;100763.00;5095344;28;20655;-61
2022/07/25 05:37:37;;;;;;;6.47;5.97;;;24.30;55.60;;;26.84;41.95;100758.66;5095292;28;20246;-62
2022/07/25 05:40:06;;;;;;;6.90;6.20;;;24.30;55.60;;;26.88;42.23;100742.69;5094874;28;20196;-61
2022/07/25 05:42:34;;;;;;;6.63;6.03;;;24.40;55.50;;;26.88;41.57;100748.09;5095522;28;20223;-60
2022/07/25 05:45:01;;;;;;;6.97;6.30;;;24.40;55.40;;;26.89;41.92;100750.50;5095798;28;20223;-58
2022/07/25 05:47:29;;;;;;;6.30;5.80;;;24.40;55.40;;;26.95;41.60;100753.97;5095728;28;20210;-61
2022/07/25 05:49:57;;;;;;;6.90;5.83;;;24.50;55.50;;;27.03;41.85;100740.66;5095704;28;20188;-60
2022/07/25 05:52:24;;;;;;;6.57;5.97;;;24.50;55.40;;;27.14;41.89;100741.38;5096316;28;20216;-61
2022/07/25 05:54:53;;;;;;;6.20;5.60;;;24.60;55.50;;;27.21;41.53;100741.88;5094286;28;20283;-60
2022/07/25 05:57:21;;;;;;;5.97;5.37;;;24.60;55.30;;;27.22;41.33;100740.78;5095644;28;20253;-60
2022/07/25 05:59:48;;;;;;;6.07;5.57;;;24.70;55.40;;;27.28;41.32;100747.75;5095223;28;20191;-61
2022/07/25 06:02:16;;;;;;;6.47;4.97;;;24.70;55.00;;;27.34;41.57;100741.19;5094832;28;20297;-59
2022/07/25 06:04:43;;;;;;;5.60;5.10;;;24.80;54.90;;;27.39;41.38;100749.28;5095425;28;20216;-58
2022/07/25 06:07:11;;;;;;;6.13;5.57;;;24.90;54.80;;;27.50;41.03;100740.00;5094412;28;20303;-59
2022/07/25 06:09:43;;;;;;;6.43;5.67;;;24.90;54.60;;;27.50;40.90;100742.72;5095176;28;20285;-58
2022/07/25 06:12:12;;;;;;;7.47;5.17;;;24.90;54.40;;;27.59;40.75;100740.16;5094914;28;20303;-59
2022/07/25 06:14:40;;;;;;;5.97;5.37;;;25.10;54.80;;;27.62;40.62;100732.28;5094937;28;20212;-59
2022/07/25 06:17:09;;;;;;;6.33;5.73;;;25.10;53.90;;;27.68;40.69;100730.31;5095564;28;20184;-61
2022/07/25 06:19:36;;;;;;;5.60;5.10;;;25.20;53.80;;;27.73;40.61;100732.97;5094818;28;20717;-60
2022/07/25 06:22:03;;;;;;;5.93;5.47;;;25.30;53.50;;;27.80;40.17;100733.44;5094826;28;20200;-60
2022/07/25 06:24:31;;;;;;;6.13;5.40;;;25.40;53.50;;;27.89;40.41;100735.22;5096367;28;20195;-61
2022/07/25 06:26:58;;;;;;;6.43;5.93;;;25.40;53.40;;;27.97;40.11;100734.59;5092641;28;20571;-61
2022/07/25 06:29:27;;;;;;;7.90;5.87;;;25.50;53.30;;;28.06;40.21;100727.44;5094903;28;20665;-61
2022/07/25 06:31:54;;;;;;;5.57;5.17;;;25.60;53.30;;;28.15;39.98;100730.31;5095221;28;20213;-60
2022/07/25 06:34:22;;;;;;;6.33;5.73;;;25.60;53.10;;;28.27;39.77;100719.84;5095366;28;20594;-61
2022/07/25 06:36:56;;;;;;;5.77;5.10;;;25.80;53.10;;;28.43;39.53;100726.66;5095458;28;20214;-61
2022/07/25 06:39:24;;;;;;;5.67;5.27;;;25.90;52.90;;;28.57;39.35;100718.63;5094813;28;20219;-60
2022/07/25 06:41:51;;;;;;;5.93;5.30;;;26.00;52.50;;;28.71;38.77;100723.03;5100687;28;20211;-59
2022/07/25 06:44:19;;;;;;;5.80;5.40;;;26.10;52.30;;;28.87;38.40;100714.63;5114791;28;20184;-61
2022/07/25 06:46:48;;;;;;;8.47;5.93;;;26.30;51.90;;;29.04;38.08;100714.91;5115038;28;20187;-60
2022/07/25 06:49:16;;;;;;;6.17;5.47;;;26.40;51.40;;;29.13;37.82;100707.69;5114487;28;20547;-59
2022/07/25 06:51:43;;;;;;;5.30;4.80;;;26.50;50.60;;;29.27;37.62;100709.34;5114500;28;20255;-59
2022/07/25 06:54:12;;;;;;;5.43;5.03;;;26.70;50.30;;;29.38;37.47;100705.34;5114366;28;20203;-58
2022/07/25 06:56:40;;;;;;;5.37;4.83;;;26.80;49.90;;;29.56;36.92;100705.56;5114664;28;20192;-60
2022/07/25 06:59:07;;;;;;;6.60;5.27;;;27.00;49.70;;;29.70;36.40;100711.78;5112821;28;20567;-59
2022/07/25 07:01:35;;;;;;;7.00;5.13;;;27.10;49.10;;;29.90;36.26;100706.00;5114574;28;20251;-60
2022/07/25 07:04:04;;;;;;;6.33;5.83;;;27.20;49.00;;;30.05;35.79;100708.34;5114486;28;20188;-60
2022/07/25 07:06:32;;;;;;;6.47;5.67;;;27.40;48.40;;;30.19;35.54;100695.56;5114581;28;20662;-60
2022/07/25 07:09:00;;;;;;;6.87;5.90;;;27.60;48.30;;;30.26;35.35;100701.41;5114340;28;20184;-60
2022/07/25 07:11:27;;;;;;;6.00;5.50;;;27.60;47.40;;;30.48;35.46;100690.56;5114114;28;20227;-60
2022/07/25 07:13:54;;;;;;;8.27;5.40;;;27.80;48.20;;;30.70;34.26;100687.06;5113529;28;20693;-60
2022/07/25 07:16:22;;;;;;;6.70;5.57;;;28.00;46.40;;;30.86;33.96;100690.22;5113278;28;20219;-60
2022/07/25 07:18:49;;;;;;;5.70;5.20;;;28.10;45.60;;;31.09;34.14;100692.63;5114545;28;20183;-60
2022/07/25 07:21:18;;;;;;;5.97;5.47;;;28.30;45.80;;;31.28;32.75;100676.06;5113712;28;20286;-59
2022/07/25 07:23:48;;;;;;;6.17;5.67;;;28.50;45.30;;;31.40;33.26;100670.81;5114343;28;20184;-60
2022/07/25 07:26:20;;;;;;;6.10;5.60;;;28.60;44.60;;;31.53;32.84;100674.56;5117304;28;20195;-60
2022/07/25 07:28:48;;;;;;;8.37;5.80;;;28.80;44.30;;;31.68;32.52;100677.66;5118053;28;20199;-60
2022/07/25 07:31:16;;;;;;;6.13;5.67;;;28.90;44.30;;;31.83;32.60;100677.19;5114251;28;20541;-60
2022/07/25 07:33:44;;;;;;;5.87;5.47;;;29.00;43.90;;;31.98;32.30;100678.72;5116870;28;20216;-59
2022/07/25 07:36:12;;;;;;;6.07;5.57;;;29.20;44.10;;;32.12;32.19;100673.13;5115196;28;20302;-59
2022/07/25 07:38:41;;;;;;;6.33;5.73;;;29.30;43.80;;;32.25;32.03;100672.16;5114617;28;20184;-59
2022/07/25 07:41:08;;;;;;;6.10;5.33;;;29.40;43.50;;;32.38;32.17;100663.03;5113979;28;20196;-58
2022/07/25 07:43:36;;;;;;;6.40;5.67;;;29.50;43.70;;;32.43;31.86;100662.84;5114172;28;20188;-59
2022/07/25 07:46:03;;;;;;;5.77;5.30;;;29.60;43.20;;;32.47;31.77;100655.66;5114007;28;20199;-58
2022/07/25 07:48:32;;;;;;;6.63;5.27;;;29.70;42.90;;;32.47;31.41;100651.00;5111938;28;20195;-58
2022/07/25 07:51:01;;;;;;;6.60;6.00;;;29.70;43.00;;;32.35;31.80;100650.03;5113429;28;20271;-58
2022/07/25 07:56:18;;;;;;;5.47;5.07;;;29.80;42.20;;;32.49;31.33;100645.22;5113505;28;20625;-61
2022/07/25 07:58:45;;;;;;;6.00;5.50;;;29.80;42.50;;;32.63;31.77;100641.22;5113454;28;20187;-61
2022/07/25 08:01:13;;;;;;;6.03;5.50;;;29.90;42.40;;;32.81;31.19;100641.97;5113074;28;20208;-60
2022/07/25 08:03:40;;;;;;;6.13;5.57;;;30.00;42.60;;;32.95;30.99;100634.38;5111843;28;20521;-61
2022/07/25 08:06:08;;;;;;;6.03;5.30;;;30.10;42.40;;;33.24;31.17;100630.91;5113380;28;20180;-61
2022/07/25 08:08:35;;;;;;;6.53;5.97;;;30.20;42.70;;;33.64;30.62;100631.41;5113535;28;20187;-59
2022/07/25 08:11:03;;;;;;;6.30;5.70;;;30.40;41.80;;;34.09;29.84;100629.63;5112942;28;20251;-59
2022/07/25 08:13:33;;;;;;;7.73;5.60;;;30.70;41.70;;;34.60;28.80;100623.72;5113067;28;20184;-59
2022/07/25 08:16:04;;;;;;;5.53;5.03;;;30.90;40.50;;;35.25;28.13;100614.59;5113362;28;20211;-58
2022/07/25 08:18:32;;;;;;;5.70;5.20;;;31.30;40.10;;;36.05;27.38;100625.69;5113374;28;20526;-59
2022/07/25 08:21:02;;;;;;;5.57;5.18;;;31.80;39.60;;;36.65;26.41;100619.16;5111114;28;20202;-59
2022/07/25 08:23:31;;;;;;;6.82;5.70;;;32.30;38.40;;;36.76;25.26;100617.50;5113404;28;20195;-60
2022/07/25 08:26:00;;;;;;;6.10;5.60;;;32.60;36.30;;;36.97;25.53;100617.25;5113220;28;20530;-60
2022/07/25 08:28:27;;;;;;;6.57;5.70;;;32.90;35.90;;;37.27;25.25;100627.44;5112881;28;20265;-61
2022/07/25 08:30:57;;;;;;;6.50;5.95;;;33.20;35.00;;;37.69;24.39;100615.84;5112666;28;20516;-60
2022/07/25 08:33:25;;;;;;;5.75;5.35;;;33.50;35.30;;;38.24;24.09;100615.47;5113117;28;20187;-62
2022/07/25 08:35:54;;;;;;;7.80;5.95;;;33.90;34.00;;;38.90;23.11;100608.84;5112708;28;20211;-59
2022/07/25 08:38:25;;;;;;;5.97;5.40;;;34.30;33.20;;;39.36;23.29;100604.88;5112611;28;20644;-59
2022/07/25 08:40:55;;;;;;;5.97;5.57;;;34.70;33.10;;;39.74;22.09;100601.91;5113485;28;20275;-59
2022/07/25 08:43:23;;;;;;;6.05;5.45;;;35.10;32.00;;;39.62;22.88;100598.59;5114954;28;20206;-62
2022/07/25 08:45:53;;;;;;;5.68;5.18;;;35.40;32.10;;;39.62;22.21;100595.81;5117397;28;20180;-59
2022/07/25 08:48:24;;;;;;;5.65;5.25;;;35.50;30.50;;;39.52;22.27;100602.75;5117386;27;20270;-59
2022/07/25 08:50:55;;;;;;;5.30;4.80;;;35.60;30.30;;;39.69;22.89;100598.69;5115760;28;20206;-61
2022/07/25 08:53:26;;;;;;;5.88;5.35;;;35.80;31.90;;;39.81;22.61;100599.25;5115489;28;20192;-60
2022/07/25 08:56:04;;;;;;;7.10;5.90;;;35.90;31.00;;;39.88;22.53;100599.34;5117136;28;20215;-59
2022/07/25 08:58:40;;;;;;;5.85;5.40;;;35.90;31.30;;;39.71;22.21;100599.91;5117047;28;20524;-60
2022/07/25 09:01:10;;;;;;;6.53;6.03;;;35.90;30.20;;;38.86;22.92;100599.72;5116766;28;20192;-60
2022/07/25 09:03:40;;;;;;;7.10;6.60;;;35.60;30.10;;;38.29;23.75;100593.19;5116778;28;20195;-59
2022/07/25 09:06:20;;;;;;;7.03;6.47;;;35.40;30.80;;;37.93;24.48;100593.63;5117033;28;20176;-61
2022/07/25 09:08:53;;;;;;;6.32;5.72;;;35.20;31.60;;;37.79;24.48;100588.59;5115229;28;20188;-58
2022/07/25 09:11:30;;;;;;;6.35;5.75;;;34.90;31.70;;;37.87;24.71;100595.06;5116074;28;20211;-59
2022/07/25 09:14:03;;;;;;;6.90;6.30;;;34.80;32.20;;;37.96;24.62;100592.91;5117209;28;20196;-61
2022/07/25 09:16:34;;;;;;;6.53;6.03;;;34.80;32.40;;;37.95;24.15;100594.84;5116697;28;20273;-60
2022/07/25 09:19:09;;;;;;;5.97;5.47;;;34.70;32.30;;;37.70;24.80;100589.97;5116605;28;20546;-60
2022/07/25 09:21:38;;;;;;;6.45;5.43;;;34.70;32.50;;;37.60;24.45;100585.03;5115493;28;20207;-60
2022/07/25 09:24:14;;;;;;;7.55;5.78;;;34.60;32.30;;;37.51;24.35;100581.69;5116403;28;20212;-60
2022/07/25 09:26:45;;;;;;;5.95;5.30;;;34.50;32.40;;;37.65;24.78;100584.75;5115304;28;20186;-60
2022/07/25 09:29:18;;;;;;;6.32;5.78;;;34.40;32.90;;;37.93;24.60;100593.63;5116280;28;20211;-60
2022/07/25 09:31:46;;;;;;;6.43;5.70;;;34.40;32.90;;;38.06;24.01;100586.78;5116167;28;20208;-60
2022/07/25 09:34:30;;;;;;;6.88;6.28;;;34.50;32.70;;;38.10;24.47;100581.38;5115924;28;20551;-60
2022/07/25 09:36:57;;;;;;;6.15;5.65;;;34.60;32.90;;;38.15;24.07;100584.63;5116168;27;20211;-60
2022/07/25 09:39:39;;;;;;;6.65;6.15;;;34.60;32.80;;;37.79;23.92;100574.03;5116131;28;20199;-60
2022/07/25 09:42:22;;;;;;;6.65;6.15;;;34.50;31.80;;;37.68;24.58;100573.03;5114393;28;20207;-61
2022/07/25 09:45:03;;;;;;;6.55;6.03;;;34.60;32.10;;;37.68;24.76;100573.03;5116068;28;20187;-60
2022/07/25 09:47:35;;;;;;;6.70;6.20;;;34.50;32.40;;;37.77;24.51;100573.63;5115874;28;20565;-61
2022/07/25 09:50:06;;;;;;;6.03;5.53;;;34.50;32.70;;;38.15;24.12;100579.13;5115959;28;20192;-61
2022/07/25 09:52:35;;;;;;;5.70;5.30;;;34.60;32.90;;;38.65;23.90;100577.31;5115301;28;20211;-59
2022/07/25 09:55:08;;;;;;;6.18;5.60;;;34.70;32.80;;;39.05;23.30;100583.13;5115033;28;20191;-59
2022/07/25 09:57:35;;;;;;;6.75;6.25;;;34.90;32.50;;;39.46;23.19;100579.44;5115716;28;20184;-59
2022/07/25 10:00:06;;;;;;;6.70;6.20;;;35.10;32.20;;;39.63;22.04;100576.13;5113378;28;20200;-60
2022/07/25 10:02:47;;;;;;;6.60;5.97;;;35.30;31.10;;;39.80;22.13;100570.06;5114202;28;20204;-60
2022/07/25 10:05:30;;;;;;;6.45;5.95;;;35.50;30.70;;;40.02;21.64;100571.13;5115505;28;20192;-59
2022/07/25 10:07:59;;;;;;;6.45;5.95;;;35.70;30.40;;;40.30;21.61;100559.59;5115183;28;20195;-60
2022/07/25 10:10:29;;;;;;;6.53;6.03;;;35.90;30.00;;;40.88;20.94;100559.78;5114472;27;20202;-61
2022/07/25 10:13:04;;;;;;;6.72;6.15;;;36.10;30.00;;;41.79;19.88;100565.88;5115252;28;20222;-61
2022/07/25 10:15:42;;;;;;;5.55;5.05;;;36.40;29.40;;;42.81;19.18;100559.78;5113463;28;20537;-60
2022/07/25 10:18:11;;;;;;;5.72;5.22;;;36.90;28.90;;;43.43;18.33;100551.81;5113671;28;20191;-60
2022/07/25 10:20:41;;;;;;;6.28;5.78;;;37.40;28.70;;;44.23;17.86;100549.06;5115316;28;20188;-61
2022/07/25 10:23:25;;;;;;;6.68;5.53;;;37.90;28.50;;;44.66;18.42;100553.13;5115323;28;20575;-61